Decoded Metar for KSUW (SUPERIOR in WI, USA) (IATA:SUW) | Meteo·Mobile Aviation Weather
aviador You're here:

KSUW Decoded Metar

SUPERIOR in WI, USA
Report Time2018-12-11 09:55:00
UTC Time2018-12-11 09:56:23
Flight Rules vfr VFR
Wind270° at 04 kt
W.Decomp.*RWY 32: 2.6 kt HW 3 kt LCW
RWY 22: 2.5 kt HW 3.1 kt RCW
W.Rank270° ranks 17
Current wind is below 270° avg. (8.0)
Visibility9999 m
Phenomena:N/A
Clouds:N/A
Expected CloudBase > 400 ft AGL from Temp-Dew spread
CeilingNone
Temp-10°C (ISA -24)
Dew Point-11°C (92% RH)
AAT-14.6°C
QNH1016 hPa
Density Alt-2,343 ft
Elevation676 ft
Report Wrong Elevation
Raw Report
KSUW 110955Z AUTO 27004KT 7SM CLR M10/M11 A3000 RMK AO2
T11051115=

Extra information for KSUW:More info

Metar Taf Metar & Taf Last 4 Metars F.Rules Stats Wind Profile Meteogram Temp Stats Airport Information Weather charts Add Link Nearby VenuesMetar ALERT Operation Metar Decoded Social comments

AIRNAV info for KSUW